METAR Data
IDs: Format: Raw Decoded Include TAF

Data at: 0525 UTC 26 Sep 2018

KPMU 260515Z AUTO 00000KT 5SM -RA SCT029 BKN036 OVC075 23/22 A3003 RMK AO2 LTG DSNT NE AND E
KPMU 260455Z AUTO 24005KT 5SM VCTS RA FEW003 BKN036 OVC095 23/22 A3004 RMK AO2 LTG DSNT NE AND E P0001
KPMU 260435Z AUTO 18005KT 10SM FEW046 SCT065 BKN075 23/22 A3004 RMK AO2 LTG DSNT NE AND E
KPMU 260415Z AUTO 21004KT 10SM VCTS FEW047 SCT070 BKN080 23/22 A3004 RMK AO2 LTG DSNT NE
KPMU 260355Z AUTO 22007KT 10SM FEW035 SCT055 OVC090 24/22 A3004 RMK AO2 P0006
KPMU 260335Z AUTO 21006KT 10SM SCT032 BKN060 OVC100 24/22 A3004 RMK AO2
KPMU 260315Z AUTO 21007KT 4SM -RA FEW003 BKN033 OVC095 25/23 A3004 RMK AO2
KPMU 260255Z AUTO 00000KT 3SM -RA FEW003 BKN035 OVC070 25/24 A3004 RMK AO2 P0001
KPMU 260235Z AUTO 28003KT 10SM SCT049 BKN075 OVC110 26/24 A3003 RMK AO2
KPMU 260215Z AUTO 16006KT 10SM FEW055 SCT075 BKN110 26/23 A3002 RMK AO2
KPMU 260155Z AUTO 17004KT 10SM BKN120 26/23 A3001 RMK AO2
KPMU 260135Z AUTO 16004KT 10SM BKN120 26/23 A2999 RMK AO2
KPMU 260115Z AUTO 16004KT 10SM BKN120 27/23 A2998 RMK AO2
KPMU 260055Z AUTO 16004KT 10SM BKN120 27/23 A2997 RMK AO2
KPMU 260035Z AUTO 16004KT 10SM CLR 27/23 A2997 RMK AO2
KPMU 260015Z AUTO 16005KT 10SM CLR 27/23 A2996 RMK AO2
KPMU 252355Z AUTO 15004KT 10SM CLR 27/23 A2996 RMK AO2
KPMU 252335Z AUTO 15004KT 10SM CLR 28/23 A2996 RMK AO2
KPMU 252315Z AUTO 15004KT 10SM SCT045 28/23 A2996 RMK AO2
KPMU 252250Z AUTO 00000KT 10SM BKN047 BKN055 BKN075 29/23 A2996 RMK AO2
KPMU 252235Z AUTO 00000KT 10SM FEW045 SCT065 BKN080 28/23 A2996 RMK AO2
KPMU 252215Z AUTO 17003KT 10SM FEW040 SCT047 BKN065 29/23 A2995 RMK AO2
KPMU 252155Z AUTO 00000KT 10SM BKN040 BKN048 OVC070 29/23 A2996 RMK AO2
KPMU 252135Z AUTO 16006KT 10SM FEW041 BKN046 BKN055 30/22 A2995 RMK AO2 LTG DSNT ALQDS
KPMU 252115Z AUTO 17005KT 10SM BKN040 BKN048 OVC070 30/22 A2995 RMK AO2
KPMU 252055Z AUTO 20004KT 10SM SCT038 BKN048 BKN060 30/22 A2996 RMK AO2
KPMU 252035Z AUTO 21005KT 10SM SCT039 BKN048 BKN055 30/22 A2996 RMK AO2
KPMU 252015Z AUTO 16004KT 10SM SCT040 BKN048 BKN060 30/22 A2997 RMK AO2
KPMU 251955Z AUTO VRB05KT 10SM BKN040 SCT046 31/22 A2997 RMK AO2
KPMU 251935Z AUTO VRB06KT 10SM BKN040 BKN050 BKN060 30/22 A2998 RMK AO2
KPMU 251915Z AUTO 21005G10KT 10SM SCT042 BKN050 BKN060 31/22 A2998 RMK AO2
KPMU 251855Z AUTO 25005G11KT 10SM BKN041 BKN047 31/22 A2999 RMK AO2
KPMU 251835Z AUTO 21006KT 10SM BKN037 BKN044 30/22 A3000 RMK AO2 LTG DSNT ALQDS
KPMU 251815Z AUTO 18010KT 10SM BKN036 BKN044 31/22 A3001 RMK AO2 LTG DSNT E
KPMU 251755Z AUTO 21005KT 10SM FEW034 FEW039 SCT046 30/22 A3002 RMK AO2
KPMU 251735Z AUTO 22007KT 10SM SCT036 SCT044 30/22 A3003 RMK AO2
KPMU 251715Z AUTO 22007G13KT 10SM FEW033 SCT041 SCT048 30/22 A3003 RMK AO2
KPMU 251655Z AUTO 19009KT 10SM FEW031 FEW044 SCT049 30/22 A3003 RMK AO2
KPMU 251635Z AUTO 22006KT 10SM FEW026 SCT035 SCT041 28/23 A3004 RMK AO2
KPMU 251615Z AUTO 23009KT 10SM SCT023 SCT028 BKN038 28/23 A3003 RMK AO2
KPMU 251555Z AUTO 23009KT 10SM BKN020 28/23 A3003 RMK AO2
KPMU 251535Z AUTO 24007KT 10SM BKN017 27/23 A3003 RMK AO2
KPMU 251515Z AUTO 23008KT 10SM BKN013 BKN020 BKN055 27/24 A3002 RMK AO2
KPMU 251455Z AUTO 25006KT 10SM BKN011 BKN021 OVC055 26/24 A3003 RMK AO2
KPMU 251435Z AUTO 20006KT 10SM BKN010 OVC013 25/24 A3003 RMK AO2
KPMU 251415Z AUTO 20006KT 10SM BKN012 BKN040 OVC048 25/23 A3003 RMK AO2
KPMU 251355Z AUTO 18005KT 10SM SCT013 SCT019 OVC046 25/23 A3002 RMK AO2
KPMU 251335Z AUTO 21005KT 10SM BKN012 BKN022 OVC043 25/23 A3002 RMK AO2
KPMU 251315Z AUTO 20007KT 10SM OVC012 24/23 A3002 RMK AO2
KPMU 251255Z AUTO 20007KT 10SM OVC012 25/23 A3002 RMK AO2
KPMU 251235Z AUTO 19008KT 10SM OVC015 24/23 A3001 RMK AO2
KPMU 251215Z AUTO 18008KT 10SM OVC017 24/23 A3001 RMK AO2
KPMU 251155Z AUTO 18007KT 10SM BKN015 OVC019 24/23 A3000 RMK AO2
KPMU 251135Z AUTO 19007KT 10SM BKN017 OVC023 24/23 A3000 RMK AO2
KPMU 251115Z AUTO 19006KT 10SM SCT013 BKN020 OVC026 25/23 A3000 RMK AO2
KPMU 251055Z AUTO 19006G11KT 10SM BKN015 OVC025 24/23 A2999 RMK AO2
KPMU 251035Z AUTO 18005KT 10SM SCT015 BKN024 OVC047 24/23 A2999 RMK AO2
KPMU 251015Z AUTO 16005KT 10SM SCT013 BKN021 OVC048 24/23 A2998 RMK AO2
KPMU 250955Z AUTO 16005KT 10SM SCT016 BKN023 OVC035 24/23 A2998 RMK AO2
KPMU 250935Z AUTO 15006KT 10SM BKN023 OVC035 24/23 A2998 RMK AO2
KPMU 250915Z AUTO 15006KT 10SM BKN024 BKN034 OVC043 24/23 A2998 RMK AO2
KPMU 250855Z AUTO 16005KT 10SM FEW014 SCT027 SCT036 24/23 A2997 RMK AO2
KPMU 250835Z AUTO 15006KT 10SM CLR 24/23 A2998 RMK AO2
KPMU 250815Z AUTO 15005KT 10SM FEW027 FEW095 SCT120 24/23 A2998 RMK AO2
KPMU 250755Z AUTO 15005KT 10SM SCT014 SCT030 BKN090 24/23 A2998 RMK AO2
KPMU 250735Z AUTO 14005KT 10SM FEW013 SCT031 OVC090 24/23 A2998 RMK AO2
KPMU 250715Z AUTO 13004KT 10SM BKN070 OVC085 24/23 A2998 RMK AO2
KPMU 250655Z AUTO VRB04KT 10SM BKN065 OVC075 24/23 A2998 RMK AO2
KPMU 250635Z AUTO 15003KT 10SM OVC065 24/23 A2998 RMK AO2
KPMU 250615Z AUTO 15005KT 10SM BKN060 BKN070 24/23 A2997 RMK AO2
KPMU 250555Z AUTO 15007KT 10SM SCT043 SCT055 BKN070 24/23 A2997 RMK AO2
KPMU 250535Z AUTO 15006KT 10SM BKN043 24/23 A2997 RMK AO2 LTG DSNT ALQDS
KPMU 250515Z AUTO 15005KT 10SM CLR 24/23 A2997 RMK AO2
KPMU 250455Z AUTO VRB03KT 10SM CLR 24/23 A2997 RMK AO2
KPMU 250435Z AUTO 15003KT 10SM CLR 24/23 A2996 RMK AO2
KPMU 250415Z AUTO 13004KT 10SM FEW016 24/23 A2997 RMK AO2
KPMU 250355Z AUTO 00000KT 10SM CLR 24/23 A2996 RMK AO2
KPMU 250335Z AUTO VRB03KT 10SM CLR 25/23 A2996 RMK AO2 LTG DSNT ALQDS
KPMU 250315Z AUTO 00000KT 10SM CLR 25/23 A2995 RMK AO2
KPMU 250255Z AUTO 14004KT 10SM CLR 25/23 A2994 RMK AO2
KPMU 250235Z AUTO VRB04KT 10SM CLR 25/23 A2994 RMK AO2
KPMU 250215Z AUTO 13005KT 10SM FEW085 25/23 A2994 RMK AO2
KPMU 250155Z AUTO 12006KT 10SM FEW085 25/23 A2993 RMK AO2
KPMU 250135Z AUTO VRB04KT 10SM CLR 26/24 A2993 RMK AO2
KPMU 250115Z AUTO VRB05KT 10SM CLR 25/24 A2992 RMK AO2
KPMU 250055Z AUTO 00000KT 10SM FEW075 25/24 A2992 RMK AO2
KPMU 250035Z AUTO 00000KT 10SM FEW065 SCT075 25/24 A2991 RMK AO2
KPMU 250015Z AUTO 00000KT 10SM SCT065 SCT080 BKN120 26/24 A2991 RMK AO2 LTG DSNT S AND SW
KPMU 242355Z AUTO 00000KT 10SM FEW043 SCT120 26/25 A2991 RMK AO2 LTG DSNT S AND SW
KPMU 242335Z AUTO 00000KT 10SM FEW031 SCT043 BKN070 27/25 A2991 RMK AO2
KPMU 242315Z AUTO 00000KT 10SM SCT070 27/25 A2991 RMK AO2
KPMU 242255Z AUTO 00000KT 10SM CLR 28/25 A2991 RMK AO2 LTG DSNT E AND SW
KPMU 242235Z AUTO 00000KT 10SM CLR 28/24 A2990 RMK AO2
KPMU 242215Z AUTO 14005KT 10SM CLR 28/24 A2990 RMK AO2
KPMU 242155Z AUTO 13007KT 100V160 10SM CLR 29/24 A2990 RMK AO2
KPMU 242135Z AUTO 14005KT 10SM CLR 28/24 A2990 RMK AO2 LTG DSNT SE
KPMU 242115Z AUTO 11004KT 10SM CLR 28/24 A2990 RMK AO2
KPMU 242055Z AUTO VRB06G11KT 10SM FEW004 FEW024 FEW041 27/24 A2991 RMK AO2 LTG DSNT NE P0006
KPMU 242035Z AUTO VRB04G11KT 3SM -RA FEW004 FEW024 BKN043 26/24 A2991 RMK AO2
KPMU 242015Z AUTO 14006KT 10SM SCT041 SCT050 BKN075 29/24 A2991 RMK AO2
KPMU 241955Z AUTO VRB04G11KT 10SM FEW036 SCT043 SCT075 29/25 A2991 RMK AO2
KPMU 241935Z AUTO 15007KT 10SM SCT020 BKN042 OVC085 28/25 A2991 RMK AO2
KPMU 241915Z AUTO 15007KT 10SM BKN019 OVC024 28/24 A2992 RMK AO2 LTG DSNT SE AND NW
KPMU 241855Z AUTO 00000KT 10SM BKN019 OVC024 28/24 A2993 RMK AO2
KPMU 241835Z AUTO 00000KT 9SM -RA SCT019 BKN023 OVC065 28/24 A2994 RMK AO2
KPMU 241815Z AUTO 17005KT 10SM FEW017 SCT026 BKN031 28/24 A2995 RMK AO2
KPMU 241755Z AUTO VRB03KT 10SM BKN016 BKN042 OVC055 28/24 A2996 RMK AO2
KPMU 241735Z AUTO 17005KT 10SM BKN013 BKN018 OVC055 27/24 A2997 RMK AO2